createdAt,value
2018-03-06T00:01:50.714Z,22.98
2018-03-06T00:04:19.655Z,23.00
2018-03-06T00:06:48.647Z,23.01
2018-03-06T00:09:17.736Z,23.01
2018-03-06T00:11:46.683Z,23.84
2018-03-06T00:15:39.483Z,24.61
2018-03-06T00:18:08.565Z,24.63
2018-03-06T00:20:37.717Z,24.11
2018-03-06T00:23:06.683Z,23.59
2018-03-06T00:27:22.736Z,23.34
2018-03-06T00:29:51.719Z,23.21
2018-03-06T00:32:20.726Z,23.16
2018-03-06T00:34:50.506Z,23.11
2018-03-06T00:37:19.584Z,23.04
2018-03-06T00:40:18.492Z,23.04
2018-03-06T00:42:47.607Z,23.05
2018-03-06T00:45:16.715Z,23.11
2018-03-06T00:47:45.671Z,23.12
2018-03-06T00:52:27.671Z,23.03
2018-03-06T00:54:56.720Z,23.04
2018-03-06T00:57:25.695Z,23.08
2018-03-06T00:59:54.643Z,23.08
2018-03-06T01:02:23.646Z,23.15
2018-03-06T01:04:52.673Z,23.00
2018-03-06T01:07:21.688Z,22.85
2018-03-06T01:09:50.651Z,23.64
2018-03-06T01:12:19.643Z,24.36
2018-03-06T01:14:48.691Z,24.59
2018-03-06T01:17:18.440Z,24.19
2018-03-06T01:19:47.674Z,23.59
2018-03-06T01:22:16.681Z,23.40
2018-03-06T01:24:45.705Z,23.27
2018-03-06T01:29:58.659Z,23.10
2018-03-06T01:32:27.841Z,23.01
2018-03-06T01:34:57.297Z,22.92
2018-03-06T01:37:26.436Z,22.91
2018-03-06T01:39:55.647Z,22.91
2018-03-06T01:42:24.675Z,22.92
2018-03-06T01:44:53.634Z,22.92
2018-03-06T01:49:56.631Z,22.92
2018-03-06T01:52:25.691Z,22.99
2018-03-06T01:54:54.647Z,23.25
2018-03-06T01:58:22.615Z,24.25
2018-03-06T02:04:23.688Z,24.05
2018-03-06T02:06:52.686Z,23.63
2018-03-06T02:09:21.727Z,23.44
2018-03-06T02:11:50.688Z,23.26
2018-03-06T02:14:19.688Z,23.12
2018-03-06T02:16:48.772Z,23.03
2018-03-06T02:19:17.697Z,23.02
2018-03-06T02:22:26.718Z,22.97
2018-03-06T02:24:55.674Z,22.95
2018-03-06T02:27:24.741Z,22.87
2018-03-06T02:29:53.674Z,22.82
2018-03-06T02:32:22.667Z,22.84
2018-03-06T02:34:51.690Z,22.79
2018-03-06T02:37:20.685Z,23.86
2018-03-06T02:39:49.707Z,24.34
2018-03-06T02:42:18.632Z,24.39
2018-03-06T02:45:25.835Z,24.10
2018-03-06T02:47:54.723Z,23.80
2018-03-06T02:53:08.627Z,23.52
2018-03-06T02:55:38.663Z,23.38
2018-03-06T02:58:07.645Z,23.24
2018-03-06T03:00:36.627Z,23.17
2018-03-06T03:03:05.700Z,23.11
2018-03-06T03:07:12.523Z,23.07
2018-03-06T03:10:48.690Z,22.91
2018-03-06T03:15:00.039Z,22.88
2018-03-06T03:17:29.217Z,22.90
2018-03-06T03:19:58.644Z,22.75
2018-03-06T03:22:27.626Z,23.67
2018-03-06T03:25:35.588Z,24.33
2018-03-06T03:28:04.880Z,24.64
2018-03-06T03:30:34.072Z,24.04
2018-03-06T03:33:03.769Z,23.64
2018-03-06T03:35:32.765Z,23.45
2018-03-06T03:38:01.774Z,23.27
2018-03-06T03:40:30.896Z,23.23
2018-03-06T03:45:38.518Z,23.16
2018-03-06T03:48:07.676Z,23.14
2018-03-06T03:53:03.590Z,22.96
2018-03-06T03:55:32.877Z,22.96
2018-03-06T03:58:01.610Z,22.93
2018-03-06T04:00:30.867Z,22.92
2018-03-06T04:02:59.882Z,22.84
2018-03-06T04:05:28.674Z,22.81
2018-03-06T04:07:57.970Z,22.99
2018-03-06T04:10:27.444Z,23.87
2018-03-06T04:12:56.724Z,24.38
2018-03-06T04:15:25.784Z,24.55
2018-03-06T04:17:55.236Z,23.80
2018-03-06T04:20:24.744Z,23.39
2018-03-06T04:22:54.317Z,23.28
2018-03-06T04:25:23.743Z,23.17
2018-03-06T04:27:52.882Z,23.08
2018-03-06T04:30:21.690Z,23.07
2018-03-06T04:34:53.799Z,23.04
2018-03-06T04:37:23.463Z,23.03
2018-03-06T04:39:52.734Z,23.05
2018-03-06T04:42:21.891Z,23.05
2018-03-06T04:44:50.578Z,22.97
2018-03-06T04:47:19.787Z,22.97
2018-03-06T04:49:48.765Z,23.01
2018-03-06T04:52:17.779Z,23.02
2018-03-06T04:54:46.744Z,22.85
2018-03-06T04:57:41.523Z,23.62
2018-03-06T05:00:10.709Z,24.41
2018-03-06T05:02:39.784Z,25.03
2018-03-06T05:05:09.189Z,24.64
2018-03-06T05:10:59.692Z,23.76
2018-03-06T05:15:00.472Z,23.52
2018-03-06T05:17:29.663Z,23.61
2018-03-06T05:19:58.724Z,23.60
2018-03-06T05:22:27.837Z,23.62
2018-03-06T05:24:56.686Z,23.48
2018-03-06T05:27:25.703Z,23.12
2018-03-06T05:29:54.768Z,22.94
2018-03-06T05:32:23.717Z,22.71
2018-03-06T05:34:52.705Z,22.67
2018-03-06T05:37:21.720Z,23.04
2018-03-06T05:39:50.704Z,23.81
2018-03-06T05:42:19.743Z,24.64
2018-03-06T05:44:48.842Z,24.96
2018-03-06T05:47:17.681Z,24.55
2018-03-06T05:49:46.700Z,23.93
2018-03-06T05:52:15.778Z,23.63
2018-03-06T05:54:44.695Z,23.58
2018-03-06T05:57:13.694Z,23.67
2018-03-06T06:00:29.551Z,23.46
2018-03-06T06:02:59.589Z,23.54
2018-03-06T06:05:28.755Z,23.55
2018-03-06T06:07:57.697Z,23.48
2018-03-06T06:10:27.663Z,23.39
2018-03-06T06:12:56.723Z,23.30
2018-03-06T06:15:25.698Z,23.39
2018-03-06T06:19:58.761Z,24.52
2018-03-06T06:22:27.639Z,25.08
2018-03-06T06:25:43.623Z,24.73
2018-03-06T06:28:12.631Z,24.25
2018-03-06T06:30:41.678Z,24.06
2018-03-06T06:33:10.630Z,24.00
2018-03-06T06:35:39.646Z,23.92
2018-03-06T06:38:08.626Z,23.79
2018-03-06T06:43:33.604Z,23.46
2018-03-06T06:46:02.627Z,23.41
2018-03-06T06:48:31.726Z,23.32
2018-03-06T06:51:00.749Z,23.18
2018-03-06T07:08:27.439Z,24.51
2018-03-06T07:10:56.549Z,24.54
2018-03-06T07:13:25.706Z,24.58
2018-03-06T07:15:55.695Z,24.70
2018-03-06T07:18:24.696Z,24.63
2018-03-06T07:20:53.722Z,24.12
2018-03-06T07:23:22.720Z,23.85
2018-03-06T07:25:51.746Z,23.74
2018-03-06T07:28:20.664Z,23.71
2018-03-06T07:33:07.672Z,23.62
2018-03-06T07:35:36.779Z,23.56
2018-03-06T07:38:05.659Z,23.43
2018-03-06T07:40:34.697Z,23.40
2018-03-06T07:43:03.607Z,23.59
2018-03-06T07:45:32.677Z,23.47
2018-03-06T07:48:01.749Z,23.85
2018-03-06T07:51:47.648Z,24.66
2018-03-06T07:54:16.616Z,24.97
2018-03-06T07:56:45.658Z,25.12
2018-03-06T07:59:14.760Z,24.59
2018-03-06T08:01:43.798Z,24.17
2018-03-06T08:04:12.659Z,23.86
2018-03-06T08:06:41.696Z,23.71
2018-03-06T08:09:10.621Z,23.56
2018-03-06T08:11:39.648Z,23.68
2018-03-06T08:14:08.495Z,23.63
2018-03-06T08:18:32.926Z,23.67
2018-03-06T08:21:02.623Z,23.71
2018-03-06T08:23:31.682Z,23.73
2018-03-06T08:26:00.716Z,23.73
2018-03-06T08:28:29.693Z,23.63
2018-03-06T08:30:58.868Z,23.70
2018-03-06T08:33:27.655Z,23.67
2018-03-06T08:35:56.753Z,23.44
2018-03-06T08:38:25.822Z,23.39
2018-03-06T08:40:54.685Z,23.33
2018-03-06T08:43:23.641Z,23.59
2018-03-06T08:45:52.700Z,24.49
2018-03-06T08:48:21.655Z,25.04
2018-03-06T08:51:47.643Z,24.81
2018-03-06T08:54:16.652Z,24.22
2018-03-06T08:56:45.626Z,23.93
2018-03-06T08:59:14.511Z,23.72
2018-03-06T09:01:44.513Z,23.59
2018-03-06T09:04:13.743Z,23.51
2018-03-06T09:06:43.739Z,23.47
2018-03-06T09:09:12.816Z,23.35
2018-03-06T09:11:41.668Z,23.39
2018-03-06T09:14:10.748Z,23.35
2018-03-06T09:16:39.888Z,23.26
2018-03-06T09:19:08.782Z,23.34
2018-03-06T09:21:37.759Z,23.48
2018-03-06T09:24:06.706Z,23.60
2018-03-06T09:26:35.673Z,24.53
2018-03-06T09:29:04.727Z,25.04
2018-03-06T09:31:33.674Z,25.03
2018-03-06T09:34:02.656Z,24.89
2018-03-06T09:36:31.628Z,24.35
2018-03-06T09:39:00.623Z,23.97
2018-03-06T09:41:32.601Z,23.66
2018-03-06T09:44:01.603Z,23.64
2018-03-06T09:46:30.667Z,23.66
2018-03-06T09:48:59.730Z,23.64
2018-03-06T09:51:28.789Z,23.59
2018-03-06T09:56:18.615Z,23.63
2018-03-06T09:58:47.680Z,23.63
2018-03-06T10:01:16.682Z,23.65
2018-03-06T10:03:45.639Z,23.58
2018-03-06T10:18:19.646Z,23.65
2018-03-06T10:20:48.643Z,23.52
2018-03-06T10:23:17.652Z,23.58
2018-03-06T10:27:33.326Z,23.58
2018-03-06T10:30:02.684Z,23.47
2018-03-06T10:32:31.651Z,23.36
2018-03-06T10:35:00.643Z,23.37
2018-03-06T10:37:29.634Z,23.33
2018-03-06T10:39:58.623Z,23.35
2018-03-06T10:42:27.680Z,23.36
2018-03-06T10:44:56.777Z,23.36
2018-03-06T10:47:25.662Z,22.99
2018-03-06T10:49:54.650Z,23.35
2018-03-06T10:52:23.673Z,23.41
2018-03-06T10:54:52.711Z,23.40
2018-03-06T10:57:55.649Z,23.46
2018-03-06T11:00:30.544Z,23.46
2018-03-06T11:02:59.609Z,23.49
2018-03-06T11:05:28.854Z,23.57
2018-03-06T11:07:58.192Z,23.56
2018-03-06T11:10:27.741Z,23.59
2018-03-06T11:12:57.462Z,23.71
2018-03-06T11:15:26.720Z,23.74
2018-03-06T11:17:55.768Z,23.79
2018-03-06T11:20:24.746Z,23.88
2018-03-06T11:22:53.876Z,23.83
2018-03-06T11:25:22.878Z,23.98
2018-03-06T11:30:11.622Z,24.00
2018-03-06T11:32:40.672Z,23.74
2018-03-06T11:35:09.731Z,23.63
2018-03-06T11:37:38.726Z,23.80
2018-03-06T11:40:07.774Z,23.89
2018-03-06T11:45:06.701Z,23.88
2018-03-06T11:47:35.680Z,23.81
2018-03-06T11:50:04.671Z,23.64
2018-03-06T11:52:33.737Z,23.70
2018-03-06T11:55:02.655Z,23.83
2018-03-06T11:57:31.692Z,23.74
2018-03-06T12:00:00.669Z,23.71
2018-03-06T12:02:29.697Z,23.66
2018-03-06T12:04:58.698Z,23.70
2018-03-06T12:07:27.759Z,23.73
2018-03-06T12:09:56.667Z,23.71
2018-03-06T12:12:25.687Z,23.79
2018-03-06T12:14:54.718Z,23.83
2018-03-06T12:17:23.709Z,23.83
2018-03-06T12:19:52.690Z,23.80
2018-03-06T12:22:21.779Z,23.85
2018-03-06T12:24:51.624Z,23.90
2018-03-06T12:27:20.679Z,23.88
2018-03-06T12:29:49.740Z,23.87
2018-03-06T12:32:19.721Z,23.74
2018-03-06T12:34:48.739Z,23.71
2018-03-06T12:37:18.651Z,23.76
2018-03-06T12:39:47.671Z,23.69
2018-03-06T12:42:16.683Z,23.69
2018-03-06T12:44:45.809Z,23.63
2018-03-06T12:47:15.317Z,23.55
2018-03-06T12:49:44.753Z,23.56
2018-03-06T12:52:13.790Z,23.55
2018-03-06T12:55:07.694Z,23.53
2018-03-06T12:57:37.156Z,23.52
2018-03-06T13:00:06.686Z,23.55
2018-03-06T13:02:35.692Z,23.15
2018-03-06T13:05:04.718Z,23.07
2018-03-06T13:07:33.745Z,23.07
2018-03-06T13:10:02.735Z,23.09
2018-03-06T13:14:18.717Z,23.21
2018-03-06T13:16:47.709Z,23.24
2018-03-06T13:19:16.703Z,23.23
2018-03-06T13:21:45.659Z,23.25
2018-03-06T13:24:38.643Z,23.27
2018-03-06T13:28:19.653Z,23.25
2018-03-06T13:31:59.651Z,23.19
2018-03-06T13:34:29.690Z,23.22
2018-03-06T13:36:58.696Z,23.24
2018-03-06T13:39:27.735Z,23.23
2018-03-06T13:41:56.675Z,23.16
2018-03-06T13:44:25.655Z,23.11
2018-03-06T13:46:54.643Z,23.01
2018-03-06T13:49:23.665Z,22.97
2018-03-06T13:51:52.728Z,22.92
2018-03-06T13:54:21.686Z,22.83
2018-03-06T13:56:50.711Z,22.81
2018-03-06T13:59:20.865Z,22.82
2018-03-06T14:01:49.661Z,22.84
2018-03-06T14:04:18.676Z,22.85
2018-03-06T14:06:47.707Z,22.86
2018-03-06T14:09:16.717Z,22.89
2018-03-06T14:11:45.674Z,22.91
2018-03-06T14:14:14.676Z,23.04
2018-03-06T14:16:43.691Z,23.27
2018-03-06T14:19:12.667Z,23.40
2018-03-06T14:21:41.636Z,23.41
2018-03-06T14:24:10.700Z,23.32
2018-03-06T14:28:35.679Z,23.16
2018-03-06T14:31:04.715Z,22.96
2018-03-06T14:33:33.684Z,22.79
2018-03-06T14:36:02.664Z,22.80
2018-03-06T14:38:31.698Z,22.75
2018-03-06T14:41:00.730Z,22.80
2018-03-06T14:43:29.611Z,22.84
2018-03-06T14:45:59.493Z,22.80
2018-03-06T14:48:28.659Z,22.77
2018-03-06T14:50:57.805Z,22.66
2018-03-06T14:53:26.759Z,22.83
2018-03-06T14:55:55.827Z,23.05
2018-03-06T14:58:24.719Z,22.95
2018-03-06T15:00:53.726Z,22.95
2018-03-06T15:05:00.189Z,23.14
2018-03-06T15:07:30.167Z,23.04
2018-03-06T15:10:01.582Z,23.11
2018-03-06T15:12:31.529Z,24.28
2018-03-06T15:15:00.777Z,24.40
2018-03-06T15:17:30.234Z,24.34
2018-03-06T15:20:00.220Z,24.50
2018-03-06T15:22:30.766Z,23.88
2018-03-06T15:25:00.337Z,23.77
2018-03-06T15:27:30.304Z,23.56
2018-03-06T15:31:28.796Z,23.28
2018-03-06T15:33:57.776Z,24.26
2018-03-06T15:36:27.181Z,24.77
2018-03-06T15:38:58.377Z,24.79
2018-03-06T15:41:28.504Z,24.51
2018-03-06T15:43:58.898Z,24.45
2018-03-06T15:48:02.529Z,23.64
2018-03-06T15:50:35.633Z,23.37
2018-03-06T15:53:05.154Z,23.21
2018-03-06T15:55:39.193Z,22.93
2018-03-06T15:58:09.627Z,24.06
2018-03-06T16:00:39.641Z,24.74
2018-03-06T16:03:10.534Z,24.98
2018-03-06T16:06:59.493Z,25.01
2018-03-06T16:09:28.676Z,24.11
2018-03-06T16:11:57.751Z,23.74
2018-03-06T16:14:26.977Z,23.60
2018-03-06T16:16:55.618Z,23.65
2018-03-06T16:19:24.767Z,23.70
2018-03-06T16:23:10.904Z,24.30
2018-03-06T16:26:46.189Z,24.97
2018-03-06T16:29:16.175Z,24.98
2018-03-06T16:33:35.696Z,24.61
2018-03-06T16:37:20.799Z,24.10
2018-03-06T16:39:50.658Z,23.90
2018-03-06T16:42:20.236Z,23.64
2018-03-06T16:44:50.329Z,23.54
2018-03-06T16:47:20.216Z,23.59
2018-03-06T16:49:49.902Z,24.37
2018-03-06T16:52:18.685Z,24.98
2018-03-06T16:54:48.164Z,25.21
2018-03-06T16:57:20.809Z,25.31
2018-03-06T16:59:50.443Z,24.70
2018-03-06T17:02:19.790Z,24.24
2018-03-06T17:04:48.904Z,24.08
2018-03-06T17:09:09.686Z,23.94
2018-03-06T17:11:41.023Z,23.77
2018-03-06T17:14:10.883Z,23.64
2018-03-06T17:16:39.773Z,23.63
2018-03-06T17:19:08.920Z,24.15
2018-03-06T17:21:37.589Z,24.77
2018-03-06T17:24:08.899Z,25.13
2018-03-06T17:26:37.675Z,24.54
2018-03-06T17:29:07.173Z,24.03
2018-03-06T17:31:35.784Z,23.59
2018-03-06T17:34:04.892Z,23.42
2018-03-06T17:36:33.618Z,23.49
2018-03-06T17:39:04.265Z,23.40
2018-03-06T17:41:33.770Z,23.66
2018-03-06T17:44:03.172Z,24.36
2018-03-06T17:46:32.726Z,25.04
2018-03-06T17:49:01.780Z,25.01
2018-03-06T17:51:31.494Z,25.36
2018-03-06T17:54:00.764Z,24.42
2018-03-06T17:56:30.480Z,23.91
2018-03-06T17:59:32.865Z,23.75
2018-03-06T18:02:02.495Z,23.85
2018-03-06T18:04:31.719Z,24.18
2018-03-06T18:07:01.436Z,24.26
2018-03-06T18:09:30.692Z,24.46
2018-03-06T18:11:59.678Z,25.23
2018-03-06T18:14:29.755Z,25.59
2018-03-06T18:17:00.499Z,25.62
2018-03-06T18:21:01.758Z,25.03
2018-03-06T18:23:31.183Z,24.53
2018-03-06T18:27:18.763Z,24.35
2018-03-06T18:29:47.765Z,24.12
2018-03-06T18:32:16.880Z,23.89
2018-03-06T18:34:46.498Z,24.20
2018-03-06T18:37:16.524Z,25.01
2018-03-06T18:39:47.420Z,25.41
2018-03-06T18:42:16.601Z,25.67
2018-03-06T18:44:45.701Z,25.78
2018-03-06T18:47:15.728Z,25.06
2018-03-06T18:49:56.678Z,24.68
2018-03-06T18:52:25.704Z,24.50
2018-03-06T18:54:54.682Z,24.29
2018-03-06T18:57:23.710Z,24.01
2018-03-06T19:03:06.149Z,23.82
2018-03-06T19:07:45.679Z,25.23
2018-03-06T19:12:44.530Z,25.34
2018-03-06T19:15:13.697Z,25.32
2018-03-06T19:17:42.671Z,24.66
2018-03-06T19:20:11.675Z,24.21
2018-03-06T19:22:40.696Z,24.01
2018-03-06T19:25:09.688Z,23.82
2018-03-06T19:27:38.661Z,23.70
2018-03-06T19:30:07.665Z,23.68
2018-03-06T19:32:36.638Z,24.62
2018-03-06T19:35:05.658Z,25.16
2018-03-06T19:37:34.714Z,25.72
2018-03-06T19:40:03.673Z,25.72
2018-03-06T19:42:32.768Z,25.29
2018-03-06T19:45:54.631Z,24.42
2018-03-06T19:48:23.711Z,24.16
2018-03-06T19:50:52.683Z,24.04
2018-03-06T19:53:21.685Z,23.90
2018-03-06T19:55:50.671Z,23.91
2018-03-06T19:58:19.772Z,23.87
2018-03-06T20:00:48.723Z,24.65
2018-03-06T20:03:17.679Z,25.31
2018-03-06T20:05:46.651Z,25.38
2018-03-06T20:08:15.722Z,25.35
2018-03-06T20:10:44.644Z,25.56
2018-03-06T20:13:13.699Z,24.92
2018-03-06T20:15:42.693Z,24.44
2018-03-06T20:18:11.695Z,24.21
2018-03-06T20:23:11.682Z,23.80
2018-03-06T20:26:00.631Z,23.74
2018-03-06T20:28:29.670Z,24.33
2018-03-06T20:34:08.474Z,25.66
2018-03-06T20:36:37.661Z,25.78
2018-03-06T20:39:12.587Z,25.86
2018-03-06T20:41:41.747Z,24.97
2018-03-06T20:44:10.831Z,24.30
2018-03-06T20:46:45.773Z,24.07
2018-03-06T20:51:23.587Z,23.81
2018-03-06T20:56:58.475Z,23.71
2018-03-06T20:59:27.688Z,24.16
2018-03-06T21:01:56.696Z,25.03
2018-03-06T21:06:07.683Z,25.46
2018-03-06T21:08:36.764Z,25.55
2018-03-06T21:11:05.663Z,25.13
2018-03-06T21:13:34.643Z,24.46
2018-03-06T21:16:03.661Z,24.06
2018-03-06T21:18:32.611Z,23.87
2018-03-06T21:21:01.684Z,23.79
2018-03-06T21:23:30.685Z,23.67
2018-03-06T21:25:59.656Z,23.65
2018-03-06T21:28:28.730Z,24.54
2018-03-06T21:30:57.729Z,25.24
2018-03-06T21:33:26.691Z,25.57
2018-03-06T21:35:55.649Z,25.57
2018-03-06T21:39:28.680Z,25.68
2018-03-06T21:41:57.711Z,24.71
2018-03-06T21:45:45.683Z,24.15
2018-03-06T21:48:14.647Z,24.05
2018-03-06T21:50:43.670Z,23.86
2018-03-06T21:55:34.492Z,23.73
2018-03-06T21:58:03.531Z,24.27
2018-03-06T22:00:32.688Z,25.09
2018-03-06T22:03:01.696Z,25.47
2018-03-06T22:05:30.647Z,25.74
2018-03-06T22:07:59.955Z,25.71
2018-03-06T22:10:28.283Z,25.45
2018-03-06T22:12:57.723Z,24.69
2018-03-06T22:15:26.655Z,24.17
2018-03-06T22:17:55.694Z,23.91
2018-03-06T22:20:24.660Z,23.87
2018-03-06T22:22:53.687Z,23.71
2018-03-06T22:28:06.655Z,24.52
2018-03-06T22:30:35.627Z,25.19
2018-03-06T22:33:04.651Z,25.53
2018-03-06T22:35:33.653Z,26.13
2018-03-06T22:38:02.687Z,25.21
2018-03-06T22:40:31.651Z,24.40
2018-03-06T22:43:00.646Z,24.06
2018-03-06T22:45:29.655Z,23.93
2018-03-06T22:47:58.631Z,23.77
2018-03-06T22:50:27.615Z,23.62
2018-03-06T22:52:57.321Z,23.63
2018-03-06T22:55:27.459Z,24.50
2018-03-06T22:57:56.611Z,25.18
2018-03-06T23:00:31.667Z,25.28
2018-03-06T23:03:00.653Z,25.43
2018-03-06T23:05:29.685Z,25.39
2018-03-06T23:07:59.696Z,24.77
2018-03-06T23:10:28.644Z,24.20
2018-03-06T23:12:57.627Z,23.95
2018-03-06T23:15:26.607Z,23.79
2018-03-06T23:17:55.696Z,23.66
2018-03-06T23:20:24.659Z,23.56
2018-03-06T23:22:53.726Z,23.69
2018-03-06T23:25:22.682Z,24.56
2018-03-06T23:27:51.643Z,25.08
2018-03-06T23:30:20.627Z,25.49
2018-03-06T23:32:49.639Z,25.79
2018-03-06T23:35:18.680Z,25.76
2018-03-06T23:37:47.728Z,24.81
2018-03-06T23:40:16.674Z,24.29
2018-03-06T23:42:45.742Z,24.01
2018-03-06T23:45:14.705Z,23.82
2018-03-06T23:47:43.643Z,23.67
2018-03-06T23:50:12.699Z,23.50
2018-03-06T23:52:42.726Z,23.50
2018-03-06T23:55:11.706Z,24.64
2018-03-06T23:57:40.699Z,25.52
